sensor_id;sensor_type;location;lat;lon;timestamp;P1;durP1;ratioP1;P2;durP2;ratioP2
70199;SDS011;57587;55.688;37.600;2022-12-13T00:01:53;6.83;;;4.00;;
70199;SDS011;57587;55.688;37.600;2022-12-13T00:04:21;7.57;;;3.97;;
70199;SDS011;57587;55.688;37.600;2022-12-13T00:06:49;8.35;;;4.75;;
70199;SDS011;57587;55.688;37.600;2022-12-13T00:09:19;7.45;;;4.18;;
70199;SDS011;57587;55.688;37.600;2022-12-13T00:11:47;8.60;;;4.78;;
70199;SDS011;57587;55.688;37.600;2022-12-13T00:14:15;8.03;;;4.20;;
70199;SDS011;57587;55.688;37.600;2022-12-13T00:16:45;9.15;;;4.97;;
70199;SDS011;57587;55.688;37.600;2022-12-13T00:19:14;8.23;;;4.78;;
70199;SDS011;57587;55.688;37.600;2022-12-13T00:21:41;9.13;;;4.85;;
70199;SDS011;57587;55.688;37.600;2022-12-13T00:24:09;9.23;;;5.03;;
70199;SDS011;57587;55.688;37.600;2022-12-13T00:26:36;9.07;;;4.83;;
70199;SDS011;57587;55.688;37.600;2022-12-13T00:29:04;10.23;;;5.32;;
70199;SDS011;57587;55.688;37.600;2022-12-13T00:31:32;11.95;;;5.53;;
70199;SDS011;57587;55.688;37.600;2022-12-13T00:34:20;10.65;;;5.35;;
70199;SDS011;57587;55.688;37.600;2022-12-13T00:36:47;10.02;;;5.20;;
70199;SDS011;57587;55.688;37.600;2022-12-13T00:39:15;10.60;;;5.53;;
70199;SDS011;57587;55.688;37.600;2022-12-13T00:41:44;9.05;;;5.25;;
70199;SDS011;57587;55.688;37.600;2022-12-13T00:44:12;14.75;;;6.75;;
70199;SDS011;57587;55.688;37.600;2022-12-13T00:46:40;12.93;;;6.53;;
70199;SDS011;57587;55.688;37.600;2022-12-13T00:49:08;9.40;;;5.10;;
70199;SDS011;57587;55.688;37.600;2022-12-13T00:51:37;9.73;;;5.37;;
70199;SDS011;57587;55.688;37.600;2022-12-13T00:54:04;10.65;;;5.65;;
70199;SDS011;57587;55.688;37.600;2022-12-13T00:56:32;11.20;;;5.10;;
70199;SDS011;57587;55.688;37.600;2022-12-13T00:58:59;11.32;;;5.75;;
70199;SDS011;57587;55.688;37.600;2022-12-13T01:01:28;9.93;;;4.88;;
70199;SDS011;57587;55.688;37.600;2022-12-13T01:03:58;10.53;;;5.37;;
70199;SDS011;57587;55.688;37.600;2022-12-13T01:06:27;11.48;;;5.63;;
70199;SDS011;57587;55.688;37.600;2022-12-13T01:09:00;9.73;;;5.55;;
70199;SDS011;57587;55.688;37.600;2022-12-13T01:11:27;11.63;;;5.50;;
70199;SDS011;57587;55.688;37.600;2022-12-13T01:13:55;10.90;;;5.47;;
70199;SDS011;57587;55.688;37.600;2022-12-13T01:16:21;9.63;;;5.30;;
70199;SDS011;57587;55.688;37.600;2022-12-13T01:18:49;10.20;;;6.03;;
70199;SDS011;57587;55.688;37.600;2022-12-13T01:21:17;9.95;;;5.25;;
70199;SDS011;57587;55.688;37.600;2022-12-13T01:23:50;8.32;;;4.78;;
70199;SDS011;57587;55.688;37.600;2022-12-13T01:26:18;9.90;;;5.80;;
70199;SDS011;57587;55.688;37.600;2022-12-13T01:28:47;10.30;;;4.87;;
70199;SDS011;57587;55.688;37.600;2022-12-13T01:31:17;9.00;;;4.97;;
70199;SDS011;57587;55.688;37.600;2022-12-13T01:33:45;11.48;;;5.53;;
70199;SDS011;57587;55.688;37.600;2022-12-13T01:36:15;11.93;;;5.82;;
70199;SDS011;57587;55.688;37.600;2022-12-13T01:38:44;10.35;;;5.05;;
70199;SDS011;57587;55.688;37.600;2022-12-13T01:41:18;12.03;;;5.70;;
70199;SDS011;57587;55.688;37.600;2022-12-13T01:43:54;10.07;;;5.18;;
70199;SDS011;57587;55.688;37.600;2022-12-13T01:46:23;11.30;;;5.30;;
70199;SDS011;57587;55.688;37.600;2022-12-13T01:51:48;11.43;;;5.70;;
70199;SDS011;57587;55.688;37.600;2022-12-13T01:54:22;12.37;;;6.47;;
70199;SDS011;57587;55.688;37.600;2022-12-13T01:56:59;11.05;;;5.90;;
70199;SDS011;57587;55.688;37.600;2022-12-13T01:59:31;10.95;;;5.25;;
70199;SDS011;57587;55.688;37.600;2022-12-13T02:02:01;13.48;;;6.03;;
70199;SDS011;57587;55.688;37.600;2022-12-13T02:04:29;9.98;;;5.43;;
70199;SDS011;57587;55.688;37.600;2022-12-13T02:07:13;14.27;;;6.43;;
70199;SDS011;57587;55.688;37.600;2022-12-13T02:09:50;13.02;;;6.40;;
70199;SDS011;57587;55.688;37.600;2022-12-13T02:12:23;11.75;;;5.60;;
70199;SDS011;57587;55.688;37.600;2022-12-13T02:14:57;11.00;;;5.88;;
70199;SDS011;57587;55.688;37.600;2022-12-13T02:20:41;10.90;;;5.90;;
70199;SDS011;57587;55.688;37.600;2022-12-13T02:34:33;10.00;;;5.10;;
70199;SDS011;57587;55.688;37.600;2022-12-13T02:37:40;9.90;;;5.15;;
70199;SDS011;57587;55.688;37.600;2022-12-13T02:42:53;7.82;;;4.15;;
70199;SDS011;57587;55.688;37.600;2022-12-13T02:45:32;8.10;;;4.65;;
70199;SDS011;57587;55.688;37.600;2022-12-13T02:48:04;9.70;;;4.87;;
70199;SDS011;57587;55.688;37.600;2022-12-13T02:50:36;8.45;;;4.20;;
70199;SDS011;57587;55.688;37.600;2022-12-13T02:53:05;9.18;;;4.57;;
70199;SDS011;57587;55.688;37.600;2022-12-13T02:55:37;10.80;;;5.03;;
70199;SDS011;57587;55.688;37.600;2022-12-13T02:58:04;10.35;;;5.13;;
70199;SDS011;57587;55.688;37.600;2022-12-13T03:01:17;12.77;;;6.00;;
70199;SDS011;57587;55.688;37.600;2022-12-13T03:15:32;9.63;;;5.40;;
70199;SDS011;57587;55.688;37.600;2022-12-13T03:18:13;9.32;;;4.90;;
70199;SDS011;57587;55.688;37.600;2022-12-13T03:23:15;9.27;;;4.82;;
70199;SDS011;57587;55.688;37.600;2022-12-13T03:25:44;9.77;;;5.18;;
70199;SDS011;57587;55.688;37.600;2022-12-13T03:28:17;9.80;;;5.30;;
70199;SDS011;57587;55.688;37.600;2022-12-13T03:30:44;9.27;;;4.80;;
70199;SDS011;57587;55.688;37.600;2022-12-13T03:33:11;10.63;;;5.30;;
70199;SDS011;57587;55.688;37.600;2022-12-13T03:35:39;10.00;;;5.03;;
70199;SDS011;57587;55.688;37.600;2022-12-13T03:38:14;9.55;;;5.53;;
70199;SDS011;57587;55.688;37.600;2022-12-13T03:40:56;12.03;;;5.97;;
70199;SDS011;57587;55.688;37.600;2022-12-13T03:43:26;9.38;;;5.00;;
70199;SDS011;57587;55.688;37.600;2022-12-13T03:45:54;9.43;;;4.40;;
70199;SDS011;57587;55.688;37.600;2022-12-13T03:48:21;8.63;;;4.88;;
70199;SDS011;57587;55.688;37.600;2022-12-13T03:50:50;7.93;;;4.65;;
70199;SDS011;57587;55.688;37.600;2022-12-13T03:53:18;8.73;;;4.70;;
70199;SDS011;57587;55.688;37.600;2022-12-13T03:56:00;9.10;;;4.90;;
70199;SDS011;57587;55.688;37.600;2022-12-13T03:58:29;8.52;;;4.85;;
70199;SDS011;57587;55.688;37.600;2022-12-13T04:01:06;8.52;;;5.00;;
70199;SDS011;57587;55.688;37.600;2022-12-13T04:03:35;8.40;;;5.15;;
70199;SDS011;57587;55.688;37.600;2022-12-13T04:06:03;10.63;;;5.13;;
70199;SDS011;57587;55.688;37.600;2022-12-13T04:08:31;12.45;;;5.07;;
70199;SDS011;57587;55.688;37.600;2022-12-13T04:11:02;11.20;;;5.43;;
70199;SDS011;57587;55.688;37.600;2022-12-13T04:13:48;9.82;;;5.60;;
70199;SDS011;57587;55.688;37.600;2022-12-13T04:16:15;11.80;;;6.55;;
70199;SDS011;57587;55.688;37.600;2022-12-13T04:18:42;12.40;;;5.40;;
70199;SDS011;57587;55.688;37.600;2022-12-13T04:21:09;11.70;;;5.38;;
70199;SDS011;57587;55.688;37.600;2022-12-13T04:23:36;10.93;;;5.63;;
70199;SDS011;57587;55.688;37.600;2022-12-13T04:26:03;13.10;;;5.97;;
70199;SDS011;57587;55.688;37.600;2022-12-13T04:28:31;11.38;;;6.82;;
70199;SDS011;57587;55.688;37.600;2022-12-13T04:30:58;12.47;;;6.33;;
70199;SDS011;57587;55.688;37.600;2022-12-13T04:33:25;11.73;;;6.05;;
70199;SDS011;57587;55.688;37.600;2022-12-13T04:35:52;11.93;;;6.68;;
70199;SDS011;57587;55.688;37.600;2022-12-13T04:38:19;12.55;;;6.32;;
70199;SDS011;57587;55.688;37.600;2022-12-13T04:40:46;12.20;;;6.20;;
70199;SDS011;57587;55.688;37.600;2022-12-13T04:43:13;11.43;;;6.23;;
70199;SDS011;57587;55.688;37.600;2022-12-13T04:45:40;13.23;;;6.15;;
70199;SDS011;57587;55.688;37.600;2022-12-13T04:48:10;12.82;;;6.28;;
70199;SDS011;57587;55.688;37.600;2022-12-13T04:50:37;11.68;;;6.03;;
70199;SDS011;57587;55.688;37.600;2022-12-13T04:53:04;12.00;;;6.95;;
70199;SDS011;57587;55.688;37.600;2022-12-13T04:55:31;11.27;;;5.60;;
70199;SDS011;57587;55.688;37.600;2022-12-13T04:57:58;11.60;;;6.00;;
70199;SDS011;57587;55.688;37.600;2022-12-13T05:00:25;13.27;;;6.55;;
70199;SDS011;57587;55.688;37.600;2022-12-13T05:02:52;9.98;;;5.97;;
70199;SDS011;57587;55.688;37.600;2022-12-13T05:05:19;9.65;;;5.00;;
70199;SDS011;57587;55.688;37.600;2022-12-13T05:07:46;10.27;;;5.67;;
70199;SDS011;57587;55.688;37.600;2022-12-13T05:10:13;11.80;;;5.97;;
70199;SDS011;57587;55.688;37.600;2022-12-13T05:13:02;10.07;;;5.75;;
70199;SDS011;57587;55.688;37.600;2022-12-13T05:15:29;11.13;;;6.53;;
70199;SDS011;57587;55.688;37.600;2022-12-13T05:18:03;11.43;;;6.57;;
70199;SDS011;57587;55.688;37.600;2022-12-13T05:20:37;13.37;;;6.20;;
70199;SDS011;57587;55.688;37.600;2022-12-13T05:23:05;12.80;;;6.53;;
70199;SDS011;57587;55.688;37.600;2022-12-13T05:25:32;13.63;;;5.90;;
70199;SDS011;57587;55.688;37.600;2022-12-13T05:28:04;12.48;;;6.10;;
70199;SDS011;57587;55.688;37.600;2022-12-13T05:30:51;9.55;;;5.15;;
70199;SDS011;57587;55.688;37.600;2022-12-13T05:33:20;9.63;;;5.53;;
70199;SDS011;57587;55.688;37.600;2022-12-13T05:35:48;11.40;;;5.97;;
70199;SDS011;57587;55.688;37.600;2022-12-13T05:38:20;10.38;;;5.90;;
70199;SDS011;57587;55.688;37.600;2022-12-13T05:40:47;10.07;;;5.88;;
70199;SDS011;57587;55.688;37.600;2022-12-13T05:43:14;13.57;;;6.78;;
70199;SDS011;57587;55.688;37.600;2022-12-13T05:45:47;12.57;;;5.67;;
70199;SDS011;57587;55.688;37.600;2022-12-13T05:48:16;10.15;;;5.45;;
70199;SDS011;57587;55.688;37.600;2022-12-13T05:50:50;11.68;;;5.97;;
70199;SDS011;57587;55.688;37.600;2022-12-13T05:53:38;16.55;;;6.13;;
70199;SDS011;57587;55.688;37.600;2022-12-13T05:56:06;12.88;;;6.93;;
70199;SDS011;57587;55.688;37.600;2022-12-13T05:58:33;12.30;;;6.70;;
70199;SDS011;57587;55.688;37.600;2022-12-13T06:01:05;11.63;;;6.38;;
70199;SDS011;57587;55.688;37.600;2022-12-13T06:03:33;11.18;;;6.40;;
70199;SDS011;57587;55.688;37.600;2022-12-13T06:06:01;12.50;;;6.80;;
70199;SDS011;57587;55.688;37.600;2022-12-13T06:08:32;17.55;;;7.22;;
70199;SDS011;57587;55.688;37.600;2022-12-13T06:11:00;13.33;;;6.73;;
70199;SDS011;57587;55.688;37.600;2022-12-13T06:13:39;11.32;;;6.60;;
70199;SDS011;57587;55.688;37.600;2022-12-13T06:16:09;11.77;;;6.43;;
70199;SDS011;57587;55.688;37.600;2022-12-13T06:18:49;13.23;;;6.00;;
70199;SDS011;57587;55.688;37.600;2022-12-13T06:21:24;15.25;;;7.13;;
70199;SDS011;57587;55.688;37.600;2022-12-13T06:23:51;14.87;;;7.07;;
70199;SDS011;57587;55.688;37.600;2022-12-13T06:26:22;14.38;;;6.55;;
70199;SDS011;57587;55.688;37.600;2022-12-13T06:28:49;13.02;;;6.60;;
70199;SDS011;57587;55.688;37.600;2022-12-13T06:31:16;10.98;;;6.25;;
70199;SDS011;57587;55.688;37.600;2022-12-13T06:33:44;13.77;;;6.93;;
70199;SDS011;57587;55.688;37.600;2022-12-13T06:36:12;14.60;;;7.13;;
70199;SDS011;57587;55.688;37.600;2022-12-13T06:38:39;10.95;;;6.10;;
70199;SDS011;57587;55.688;37.600;2022-12-13T06:41:13;11.82;;;6.78;;
70199;SDS011;57587;55.688;37.600;2022-12-13T06:43:43;10.52;;;5.85;;
70199;SDS011;57587;55.688;37.600;2022-12-13T06:46:11;11.70;;;6.38;;
70199;SDS011;57587;55.688;37.600;2022-12-13T06:48:40;15.20;;;6.57;;
70199;SDS011;57587;55.688;37.600;2022-12-13T06:51:07;12.05;;;6.50;;
70199;SDS011;57587;55.688;37.600;2022-12-13T06:53:36;13.07;;;6.97;;
70199;SDS011;57587;55.688;37.600;2022-12-13T06:56:06;12.88;;;6.30;;
70199;SDS011;57587;55.688;37.600;2022-12-13T06:58:35;12.55;;;6.30;;
70199;SDS011;57587;55.688;37.600;2022-12-13T07:01:09;11.63;;;5.87;;
70199;SDS011;57587;55.688;37.600;2022-12-13T07:03:49;12.13;;;6.88;;
70199;SDS011;57587;55.688;37.600;2022-12-13T07:06:18;13.23;;;6.53;;
70199;SDS011;57587;55.688;37.600;2022-12-13T07:08:47;12.00;;;6.72;;
70199;SDS011;57587;55.688;37.600;2022-12-13T07:11:24;14.73;;;8.15;;
70199;SDS011;57587;55.688;37.600;2022-12-13T07:13:53;12.90;;;7.07;;
70199;SDS011;57587;55.688;37.600;2022-12-13T07:16:21;12.75;;;6.80;;
70199;SDS011;57587;55.688;37.600;2022-12-13T07:18:54;14.23;;;7.30;;
70199;SDS011;57587;55.688;37.600;2022-12-13T07:21:27;13.65;;;7.35;;
70199;SDS011;57587;55.688;37.600;2022-12-13T07:23:55;12.38;;;6.80;;
70199;SDS011;57587;55.688;37.600;2022-12-13T07:26:23;12.70;;;7.00;;
70199;SDS011;57587;55.688;37.600;2022-12-13T07:28:51;12.82;;;6.20;;
70199;SDS011;57587;55.688;37.600;2022-12-13T07:31:21;13.23;;;6.57;;
70199;SDS011;57587;55.688;37.600;2022-12-13T07:33:50;13.82;;;6.45;;
70199;SDS011;57587;55.688;37.600;2022-12-13T07:36:19;14.95;;;7.55;;
70199;SDS011;57587;55.688;37.600;2022-12-13T07:38:53;13.87;;;7.33;;
70199;SDS011;57587;55.688;37.600;2022-12-13T07:41:23;14.35;;;7.47;;
70199;SDS011;57587;55.688;37.600;2022-12-13T07:43:53;13.95;;;7.60;;
70199;SDS011;57587;55.688;37.600;2022-12-13T07:46:22;14.38;;;7.10;;
70199;SDS011;57587;55.688;37.600;2022-12-13T07:49:02;14.35;;;6.88;;
70199;SDS011;57587;55.688;37.600;2022-12-13T07:51:32;13.17;;;6.70;;
70199;SDS011;57587;55.688;37.600;2022-12-13T07:54:00;13.85;;;6.18;;
70199;SDS011;57587;55.688;37.600;2022-12-13T07:56:33;9.85;;;5.78;;
70199;SDS011;57587;55.688;37.600;2022-12-13T07:59:02;10.85;;;5.68;;
70199;SDS011;57587;55.688;37.600;2022-12-13T08:01:32;11.55;;;5.20;;
70199;SDS011;57587;55.688;37.600;2022-12-13T08:04:01;9.23;;;5.50;;
70199;SDS011;57587;55.688;37.600;2022-12-13T08:06:28;9.63;;;5.22;;
70199;SDS011;57587;55.688;37.600;2022-12-13T08:08:59;9.75;;;4.90;;
70199;SDS011;57587;55.688;37.600;2022-12-13T08:11:26;10.68;;;5.53;;
70199;SDS011;57587;55.688;37.600;2022-12-13T08:13:53;9.38;;;5.20;;
70199;SDS011;57587;55.688;37.600;2022-12-13T08:16:20;8.07;;;5.00;;
70199;SDS011;57587;55.688;37.600;2022-12-13T08:18:57;7.63;;;4.00;;
70199;SDS011;57587;55.688;37.600;2022-12-13T08:21:39;9.25;;;4.78;;
70199;SDS011;57587;55.688;37.600;2022-12-13T08:24:27;9.45;;;4.80;;
70199;SDS011;57587;55.688;37.600;2022-12-13T08:29:52;10.13;;;5.00;;
70199;SDS011;57587;55.688;37.600;2022-12-13T08:32:19;8.93;;;5.13;;
70199;SDS011;57587;55.688;37.600;2022-12-13T08:34:46;10.52;;;5.75;;
70199;SDS011;57587;55.688;37.600;2022-12-13T08:37:13;10.82;;;5.15;;
70199;SDS011;57587;55.688;37.600;2022-12-13T08:39:41;12.18;;;5.07;;
70199;SDS011;57587;55.688;37.600;2022-12-13T08:42:11;8.10;;;4.60;;
70199;SDS011;57587;55.688;37.600;2022-12-13T08:44:44;8.70;;;4.90;;
70199;SDS011;57587;55.688;37.600;2022-12-13T08:47:12;8.90;;;4.80;;
70199;SDS011;57587;55.688;37.600;2022-12-13T08:49:54;8.93;;;5.13;;
70199;SDS011;57587;55.688;37.600;2022-12-13T08:52:31;8.88;;;4.93;;
70199;SDS011;57587;55.688;37.600;2022-12-13T08:55:16;8.63;;;4.43;;
70199;SDS011;57587;55.688;37.600;2022-12-13T08:57:57;9.43;;;4.45;;
70199;SDS011;57587;55.688;37.600;2022-12-13T09:00:26;8.82;;;4.80;;
70199;SDS011;57587;55.688;37.600;2022-12-13T09:03:02;8.15;;;4.65;;
70199;SDS011;57587;55.688;37.600;2022-12-13T09:05:33;8.48;;;4.80;;
70199;SDS011;57587;55.688;37.600;2022-12-13T09:08:01;9.07;;;4.70;;
70199;SDS011;57587;55.688;37.600;2022-12-13T09:10:56;6.13;;;3.78;;
70199;SDS011;57587;55.688;37.600;2022-12-13T09:13:26;5.85;;;3.65;;
70199;SDS011;57587;55.688;37.600;2022-12-13T09:15:58;4.38;;;2.80;;
70199;SDS011;57587;55.688;37.600;2022-12-13T09:18:40;4.28;;;2.72;;
70199;SDS011;57587;55.688;37.600;2022-12-13T09:21:09;4.80;;;2.87;;
70199;SDS011;57587;55.688;37.600;2022-12-13T09:23:56;5.30;;;2.70;;
70199;SDS011;57587;55.688;37.600;2022-12-13T09:26:27;4.35;;;2.72;;
70199;SDS011;57587;55.688;37.600;2022-12-13T09:29:04;5.13;;;3.05;;
70199;SDS011;57587;55.688;37.600;2022-12-13T09:31:37;4.60;;;2.63;;
70199;SDS011;57587;55.688;37.600;2022-12-13T09:34:07;4.23;;;2.80;;
70199;SDS011;57587;55.688;37.600;2022-12-13T09:36:36;3.95;;;2.58;;
70199;SDS011;57587;55.688;37.600;2022-12-13T09:39:03;4.70;;;2.78;;
70199;SDS011;57587;55.688;37.600;2022-12-13T09:41:38;7.65;;;3.10;;
70199;SDS011;57587;55.688;37.600;2022-12-13T09:44:57;5.28;;;3.15;;
70199;SDS011;57587;55.688;37.600;2022-12-13T09:47:17;4.40;;;2.60;;
70199;SDS011;57587;55.688;37.600;2022-12-13T09:50:27;4.68;;;2.70;;
70199;SDS011;57587;55.688;37.600;2022-12-13T09:54:15;4.93;;;2.60;;
70199;SDS011;57587;55.688;37.600;2022-12-13T09:56:54;4.13;;;2.55;;
70199;SDS011;57587;55.688;37.600;2022-12-13T09:59:26;5.22;;;2.60;;
70199;SDS011;57587;55.688;37.600;2022-12-13T10:09:05;5.57;;;2.40;;
70199;SDS011;57587;55.688;37.600;2022-12-13T10:12:25;4.63;;;2.60;;
70199;SDS011;57587;55.688;37.600;2022-12-13T10:15:07;8.02;;;3.00;;
70199;SDS011;57587;55.688;37.600;2022-12-13T10:17:47;8.33;;;2.73;;
70199;SDS011;57587;55.688;37.600;2022-12-13T10:20:21;4.40;;;2.78;;
70199;SDS011;57587;55.688;37.600;2022-12-13T10:22:54;6.18;;;3.22;;
70199;SDS011;57587;55.688;37.600;2022-12-13T10:25:43;7.43;;;3.50;;
70199;SDS011;57587;55.688;37.600;2022-12-13T10:28:17;7.72;;;3.90;;
70199;SDS011;57587;55.688;37.600;2022-12-13T10:30:55;8.57;;;5.20;;
70199;SDS011;57587;55.688;37.600;2022-12-13T10:33:26;6.78;;;4.13;;
70199;SDS011;57587;55.688;37.600;2022-12-13T10:36:16;6.75;;;3.78;;
70199;SDS011;57587;55.688;37.600;2022-12-13T10:38:57;7.38;;;4.47;;
70199;SDS011;57587;55.688;37.600;2022-12-13T10:41:32;9.90;;;4.97;;
70199;SDS011;57587;55.688;37.600;2022-12-13T10:44:08;7.43;;;4.37;;
70199;SDS011;57587;55.688;37.600;2022-12-13T10:46:38;8.65;;;4.90;;
70199;SDS011;57587;55.688;37.600;2022-12-13T10:49:14;8.98;;;5.22;;
70199;SDS011;57587;55.688;37.600;2022-12-13T10:51:50;8.52;;;4.60;;
70199;SDS011;57587;55.688;37.600;2022-12-13T10:54:26;10.55;;;5.00;;
70199;SDS011;57587;55.688;37.600;2022-12-13T10:57:13;8.10;;;4.87;;
70199;SDS011;57587;55.688;37.600;2022-12-13T10:59:42;8.00;;;5.00;;
70199;SDS011;57587;55.688;37.600;2022-12-13T11:05:16;10.38;;;5.55;;
70199;SDS011;57587;55.688;37.600;2022-12-13T11:07:54;10.75;;;5.65;;
70199;SDS011;57587;55.688;37.600;2022-12-13T11:10:27;9.60;;;5.33;;
70199;SDS011;57587;55.688;37.600;2022-12-13T11:12:59;8.65;;;4.97;;
70199;SDS011;57587;55.688;37.600;2022-12-13T11:15:30;8.68;;;5.40;;
70199;SDS011;57587;55.688;37.600;2022-12-13T11:18:01;9.20;;;5.60;;
70199;SDS011;57587;55.688;37.600;2022-12-13T11:20:37;9.20;;;5.90;;
70199;SDS011;57587;55.688;37.600;2022-12-13T11:23:28;11.77;;;5.57;;
70199;SDS011;57587;55.688;37.600;2022-12-13T11:26:03;9.95;;;5.75;;
70199;SDS011;57587;55.688;37.600;2022-12-13T11:39:25;11.02;;;5.53;;
70199;SDS011;57587;55.688;37.600;2022-12-13T11:42:16;13.60;;;6.32;;
70199;SDS011;57587;55.688;37.600;2022-12-13T11:44:59;11.35;;;5.90;;
70199;SDS011;57587;55.688;37.600;2022-12-13T11:48:07;11.35;;;5.95;;
70199;SDS011;57587;55.688;37.600;2022-12-13T11:50:56;11.73;;;6.23;;
70199;SDS011;57587;55.688;37.600;2022-12-13T11:56:26;14.80;;;6.63;;
70199;SDS011;57587;55.688;37.600;2022-12-13T12:04:47;13.37;;;6.20;;
70199;SDS011;57587;55.688;37.600;2022-12-13T12:13:15;9.77;;;6.50;;
70199;SDS011;57587;55.688;37.600;2022-12-13T12:16:07;12.60;;;6.57;;
70199;SDS011;57587;55.688;37.600;2022-12-13T12:18:48;10.70;;;5.87;;
70199;SDS011;57587;55.688;37.600;2022-12-13T12:21:36;9.57;;;6.30;;
70199;SDS011;57587;55.688;37.600;2022-12-13T12:27:40;14.15;;;5.95;;
70199;SDS011;57587;55.688;37.600;2022-12-13T12:49:58;11.63;;;6.43;;
70199;SDS011;57587;55.688;37.600;2022-12-13T13:03:50;20.60;;;7.13;;
70199;SDS011;57587;55.688;37.600;2022-12-13T13:06:37;12.40;;;6.57;;
70199;SDS011;57587;55.688;37.600;2022-12-13T13:09:10;13.80;;;6.35;;
70199;SDS011;57587;55.688;37.600;2022-12-13T13:11:40;12.68;;;6.57;;
70199;SDS011;57587;55.688;37.600;2022-12-13T13:14:27;14.00;;;6.60;;
70199;SDS011;57587;55.688;37.600;2022-12-13T13:19:46;12.98;;;6.50;;
70199;SDS011;57587;55.688;37.600;2022-12-13T13:22:37;14.07;;;7.13;;
70199;SDS011;57587;55.688;37.600;2022-12-13T13:25:19;15.40;;;7.40;;
70199;SDS011;57587;55.688;37.600;2022-12-13T13:28:25;13.17;;;6.13;;
70199;SDS011;57587;55.688;37.600;2022-12-13T13:31:02;13.13;;;7.18;;
70199;SDS011;57587;55.688;37.600;2022-12-13T13:33:41;13.73;;;7.00;;
70199;SDS011;57587;55.688;37.600;2022-12-13T13:39:17;12.52;;;6.78;;
70199;SDS011;57587;55.688;37.600;2022-12-13T13:45:22;14.27;;;7.50;;
70199;SDS011;57587;55.688;37.600;2022-12-13T13:47:35;13.45;;;6.50;;
70199;SDS011;57587;55.688;37.600;2022-12-13T13:53:03;13.55;;;7.15;;
70199;SDS011;57587;55.688;37.600;2022-12-13T14:15:17;13.00;;;6.88;;
70199;SDS011;57587;55.688;37.600;2022-12-13T14:28:59;14.13;;;7.32;;
70199;SDS011;57587;55.688;37.600;2022-12-13T14:31:41;12.18;;;6.63;;
70199;SDS011;57587;55.688;37.600;2022-12-13T14:34:16;15.35;;;7.68;;
70199;SDS011;57587;55.688;37.600;2022-12-13T14:39:46;12.07;;;6.70;;
70199;SDS011;57587;55.688;37.600;2022-12-13T14:42:21;13.88;;;6.90;;
70199;SDS011;57587;55.688;37.600;2022-12-13T14:45:11;12.68;;;6.85;;
70199;SDS011;57587;55.688;37.600;2022-12-13T14:47:51;14.95;;;7.30;;
70199;SDS011;57587;55.688;37.600;2022-12-13T14:50:23;15.37;;;7.50;;
70199;SDS011;57587;55.688;37.600;2022-12-13T14:52:52;12.32;;;7.20;;
70199;SDS011;57587;55.688;37.600;2022-12-13T14:57:57;14.73;;;7.60;;
70199;SDS011;57587;55.688;37.600;2022-12-13T15:00:30;15.07;;;7.82;;
70199;SDS011;57587;55.688;37.600;2022-12-13T15:03:01;13.63;;;6.77;;
70199;SDS011;57587;55.688;37.600;2022-12-13T15:05:37;13.15;;;7.20;;
70199;SDS011;57587;55.688;37.600;2022-12-13T15:08:16;12.38;;;6.38;;
70199;SDS011;57587;55.688;37.600;2022-12-13T15:13:45;14.50;;;7.93;;
70199;SDS011;57587;55.688;37.600;2022-12-13T15:16:22;11.73;;;6.60;;
70199;SDS011;57587;55.688;37.600;2022-12-13T15:22:02;12.20;;;6.80;;
70199;SDS011;57587;55.688;37.600;2022-12-13T15:24:37;13.27;;;6.97;;
70199;SDS011;57587;55.688;37.600;2022-12-13T15:27:09;13.82;;;7.07;;
70199;SDS011;57587;55.688;37.600;2022-12-13T15:29:37;12.27;;;6.10;;
70199;SDS011;57587;55.688;37.600;2022-12-13T15:32:09;12.98;;;6.95;;
70199;SDS011;57587;55.688;37.600;2022-12-13T15:34:38;12.70;;;6.68;;
70199;SDS011;57587;55.688;37.600;2022-12-13T15:37:12;12.50;;;6.45;;
70199;SDS011;57587;55.688;37.600;2022-12-13T15:40:00;13.43;;;6.88;;
70199;SDS011;57587;55.688;37.600;2022-12-13T15:42:33;12.37;;;6.90;;
70199;SDS011;57587;55.688;37.600;2022-12-13T15:45:04;12.93;;;6.95;;
70199;SDS011;57587;55.688;37.600;2022-12-13T15:47:43;13.25;;;6.63;;
70199;SDS011;57587;55.688;37.600;2022-12-13T15:50:31;13.80;;;6.88;;
70199;SDS011;57587;55.688;37.600;2022-12-13T15:53:00;14.00;;;7.25;;
70199;SDS011;57587;55.688;37.600;2022-12-13T15:55:32;14.00;;;7.37;;
70199;SDS011;57587;55.688;37.600;2022-12-13T15:58:01;15.77;;;7.78;;
70199;SDS011;57587;55.688;37.600;2022-12-13T16:00:31;13.82;;;6.75;;
70199;SDS011;57587;55.688;37.600;2022-12-13T16:05:39;14.35;;;7.32;;
70199;SDS011;57587;55.688;37.600;2022-12-13T16:10:55;15.57;;;7.63;;
70199;SDS011;57587;55.688;37.600;2022-12-13T16:13:27;13.75;;;7.45;;
70199;SDS011;57587;55.688;37.600;2022-12-13T16:16:18;16.67;;;8.57;;
70199;SDS011;57587;55.688;37.600;2022-12-13T16:18:57;15.57;;;7.50;;
70199;SDS011;57587;55.688;37.600;2022-12-13T16:21:26;14.67;;;7.40;;
70199;SDS011;57587;55.688;37.600;2022-12-13T16:23:53;14.13;;;7.82;;
70199;SDS011;57587;55.688;37.600;2022-12-13T16:26:22;14.43;;;7.70;;
70199;SDS011;57587;55.688;37.600;2022-12-13T16:28:53;15.40;;;8.23;;
70199;SDS011;57587;55.688;37.600;2022-12-13T16:31:22;15.35;;;8.07;;
70199;SDS011;57587;55.688;37.600;2022-12-13T16:33:51;16.60;;;7.57;;
70199;SDS011;57587;55.688;37.600;2022-12-13T16:36:18;14.32;;;7.53;;
70199;SDS011;57587;55.688;37.600;2022-12-13T16:38:45;16.15;;;7.35;;
70199;SDS011;57587;55.688;37.600;2022-12-13T16:41:12;14.75;;;7.57;;
70199;SDS011;57587;55.688;37.600;2022-12-13T16:44:00;16.48;;;8.50;;
70199;SDS011;57587;55.688;37.600;2022-12-13T16:46:28;16.73;;;7.60;;
70199;SDS011;57587;55.688;37.600;2022-12-13T16:49:20;16.90;;;8.05;;
70199;SDS011;57587;55.688;37.600;2022-12-13T16:51:51;16.33;;;8.68;;
70199;SDS011;57587;55.688;37.600;2022-12-13T16:54:19;19.45;;;8.60;;
70199;SDS011;57587;55.688;37.600;2022-12-13T16:56:47;17.13;;;7.95;;
70199;SDS011;57587;55.688;37.600;2022-12-13T16:59:16;19.57;;;9.13;;
70199;SDS011;57587;55.688;37.600;2022-12-13T17:01:46;20.58;;;9.43;;
70199;SDS011;57587;55.688;37.600;2022-12-13T17:04:14;19.30;;;8.80;;
70199;SDS011;57587;55.688;37.600;2022-12-13T17:06:47;18.80;;;8.93;;
70199;SDS011;57587;55.688;37.600;2022-12-13T17:09:16;18.67;;;9.60;;
70199;SDS011;57587;55.688;37.600;2022-12-13T17:11:46;19.37;;;9.93;;
70199;SDS011;57587;55.688;37.600;2022-12-13T17:14:14;18.55;;;9.55;;
70199;SDS011;57587;55.688;37.600;2022-12-13T17:16:41;16.60;;;9.18;;
70199;SDS011;57587;55.688;37.600;2022-12-13T17:19:08;18.58;;;9.82;;
70199;SDS011;57587;55.688;37.600;2022-12-13T17:21:36;19.10;;;9.63;;
70199;SDS011;57587;55.688;37.600;2022-12-13T17:24:03;21.00;;;9.47;;
70199;SDS011;57587;55.688;37.600;2022-12-13T17:26:31;21.17;;;9.98;;
70199;SDS011;57587;55.688;37.600;2022-12-13T17:28:58;18.20;;;9.15;;
70199;SDS011;57587;55.688;37.600;2022-12-13T17:31:25;19.00;;;9.73;;
70199;SDS011;57587;55.688;37.600;2022-12-13T17:34:00;22.30;;;11.68;;
70199;SDS011;57587;55.688;37.600;2022-12-13T17:36:28;22.10;;;10.23;;
70199;SDS011;57587;55.688;37.600;2022-12-13T17:38:57;20.10;;;10.55;;
70199;SDS011;57587;55.688;37.600;2022-12-13T17:41:24;19.85;;;9.85;;
70199;SDS011;57587;55.688;37.600;2022-12-13T17:43:51;23.60;;;10.70;;
70199;SDS011;57587;55.688;37.600;2022-12-13T17:46:18;27.77;;;13.27;;
70199;SDS011;57587;55.688;37.600;2022-12-13T17:48:47;25.33;;;12.07;;